アンカレッジ/テッド・スティーブンス の空港の天気 - METARとTAF

テッド・スティーブンス・アンカレッジ国際空港 ( PANC / ANC ) - アメリカ アラスカ州アンカレッジ
飛行場実況気象(Metar)
観測時間08/22 07:53 AKDT (08/22 15:53 UTC)
風向・風速東南東 2m/s
視程10km以上
天気現象
少しの雲 雲底高度 3660m
少しの雲 雲底高度 6100m
気温9.4℃
湿度77%
気圧1004.7hPa
METARPANC 221553Z 11004KT 7SM FEW120 FEW200 09/06 A2967 RMK AO2 SLP047 T00940056
過去の天気等 Google飛行場航空写真 Wunderground天気予報

過去48時間のMETAR

飛行場予報(TAF)
発表時間: 8/22 03:21 AKDT (8/22 11:21 UTC)
予報対象時間: 22日4時 AKDT ~ 23日10時 AKDT
風向・風速不定 2m/s
視程10km以上
全天の4割程度の雲 雲底高度 1830m
22日4時 AKDT ~ 22日8時 AKDT に一時的に
視程8050m
天気現象
22日13時 AKDT から
風向・風速南南東 6m/s
視程10km以上
天気現象
全天の4割程度の雲 雲底高度 3050m
全天の8割程度の雲 雲底高度 6100m
23日0時 AKDT から
風向・風速南 3m/s
視程4830m
天気現象
少しの雲 雲底高度 30m
PANC 221121Z 2212/2318 VRB04KT P6SM SCT060
TEMPO 2212/2216 5SM FU
FM222100 15011KT 6SM FU SCT100 BKN200
FM230800 18005KT 3SM FU FEW001